CheckWX is a tool to help pilots better visualize weather data.  It is not intended as a substitute for an official pre-flight weather briefing.

03:03:48 UTC

KGED METAR
Delaware Coastal Airport
Georgetown, Delaware, USA
Current

10 mins ago

KGED 240254Z AUTO VRB04KT 10SM CLR 08/M06 A3022 RMK AO2 SLP233 T00781061 51016
Observed
Mar-24 @ 02:54 UTC
Wind
  • Variable at 4 KTS
Visibility
10 SM
Flight Rules
VFR
Cloud Levels
  • Clear skies
Temperature
C / 46°F
Dewpoint
-6°C / 21°F
Humidity
37%
Altimeter
30.22" Hg
Pressure
1023.3 hPa
Previous

1 hour ago

KGED 240154Z AUTO 30004KT 10SM CLR 08/M06 A3022 RMK AO2 SLP232 T00831056
Observed
Mar-24 @ 01:54 UTC
Wind
  • 300° at 4 KTS
Visibility
10 SM
Flight Rules
VFR
Cloud Levels
  • Clear skies
Temperature
C / 46°F
Dewpoint
-6°C / 21°F
Humidity
37%
Altimeter
30.22" Hg
Pressure
1023.2 hPa
Previous

2 hours ago

KGED 240054Z AUTO 24004KT 10SM CLR 08/M06 A3020 RMK AO2 SLP228 T00831056
Observed
Mar-24 @ 00:54 UTC
Wind
  • 240° at 4 KTS
Visibility
10 SM
Flight Rules
VFR
Cloud Levels
  • Clear skies
Temperature
C / 46°F
Dewpoint
-6°C / 21°F
Humidity
37%
Altimeter
30.2" Hg
Pressure
1022.8 hPa